Time;durP1;ratioP1;P1;durP2;ratioP2;P2;SDS_P1;SDS_P2;PMS_P1;PMS_P2;Temp;Humidity;BMP_temperature;BMP_pressure;BME280_temperature;BME280_humidity;BME280_pressure;Samples;Min_cycle;Max_cycle;Signal;HPM_P1;HPM_P2
2022/08/03 00:00:07;;;;;;;2.90;2.80;;;;;;;;;;5013452;28;20399;-68
2022/08/03 00:02:33;;;;;;;2.97;2.77;;;;;;;;;;5013424;28;20493;-68
2022/08/03 00:04:59;;;;;;;8.33;2.60;;;;;;;;;;5013159;28;20406;-70
2022/08/03 00:07:25;;;;;;;2.67;2.57;;;;;;;;;;5013630;28;20416;-68
2022/08/03 00:09:51;;;;;;;2.50;2.40;;;;;;;;;;5013533;28;20488;-70
2022/08/03 00:12:17;;;;;;;2.53;2.30;;;;;;;;;;4995692;28;21025;-70
2022/08/03 00:14:43;;;;;;;3.17;2.97;;;;;;;;;;5013292;28;20488;-69
2022/08/03 00:17:09;;;;;;;2.50;2.40;;;;;;;;;;4995513;28;20805;-68
2022/08/03 00:19:35;;;;;;;2.70;2.50;;;;;;;;;;5012822;28;20416;-68
2022/08/03 00:22:01;;;;;;;2.67;2.57;;;;;;;;;;5013243;28;20410;-74
2022/08/03 00:24:27;;;;;;;2.40;2.33;;;;;;;;;;4995563;28;20412;-69
2022/08/03 00:26:53;;;;;;;2.70;2.60;;;;;;;;;;4995532;28;21007;-70
2022/08/03 00:29:19;;;;;;;2.60;2.50;;;;;;;;;;5013105;28;20500;-69
2022/08/03 00:31:45;;;;;;;2.20;2.10;;;;;;;;;;5013187;28;20898;-73
2022/08/03 00:34:11;;;;;;;2.53;2.43;;;;;;;;;;4995690;28;20463;-69
2022/08/03 00:36:37;;;;;;;3.13;2.80;;;;;;;;;;5013144;28;20434;-70
2022/08/03 00:39:03;;;;;;;2.40;2.40;;;;;;;;;;5013081;28;20416;-70
2022/08/03 00:41:29;;;;;;;2.80;2.70;;;;;;;;;;5012816;28;20417;-70
2022/08/03 00:43:55;;;;;;;3.53;2.50;;;;;;;;;;5012921;28;20456;-67
2022/08/03 00:46:21;;;;;;;5.93;2.40;;;;;;;;;;5012887;28;21054;-68
2022/08/03 00:48:47;;;;;;;2.20;2.20;;;;;;;;;;5012829;28;20899;-67
2022/08/03 00:51:13;;;;;;;2.80;2.00;;;;;;;;;;4995221;28;20923;-72
2022/08/03 00:53:39;;;;;;;2.60;2.40;;;;;;;;;;4995310;28;20782;-71
2022/08/03 00:56:05;;;;;;;2.70;2.50;;;;;;;;;;5012996;28;20486;-73
2022/08/03 00:58:31;;;;;;;3.70;2.87;;;;;;;;;;5012769;28;20513;-73
2022/08/03 01:00:57;;;;;;;2.63;2.63;;;;;;;;;;5012872;28;20417;-68
2022/08/03 01:03:23;;;;;;;3.90;2.13;;;;;;;;;;5012895;28;20745;-67
2022/08/03 01:05:55;;;;;;;2.93;2.67;;;;;;;;;;5015369;28;20476;-72
2022/08/03 01:08:40;;;;;;;2.53;2.53;;;;;;;;;;5016517;28;20397;-70
2022/08/03 01:11:09;;;;;;;3.37;2.30;;;;;;;;;;5016550;28;20821;-69
2022/08/03 01:13:53;;;;;;;3.00;2.67;;;;;;;;;;4998732;28;21031;-69
2022/08/03 01:16:31;;;;;;;7.37;2.30;;;;;;;;;;5016658;28;20422;-72
2022/08/03 01:19:07;;;;;;;2.43;2.33;;;;;;;;;;5016437;28;20417;-71
2022/08/03 01:21:40;;;;;;;5.10;2.67;;;;;;;;;;5016319;28;20410;-72
2022/08/03 01:24:24;;;;;;;2.30;2.10;;;;;;;;;;5016293;28;20789;-73
2022/08/03 01:26:59;;;;;;;3.03;2.83;;;;;;;;;;5015972;28;20523;-69
2022/08/03 01:29:34;;;;;;;2.17;2.07;;;;;;;;;;4998606;28;20489;-69
2022/08/03 01:32:07;;;;;;;2.23;2.13;;;;;;;;;;5016200;28;20452;-70
2022/08/03 01:34:36;;;;;;;2.73;2.63;;;;;;;;;;5015962;28;20716;-68
2022/08/03 01:37:04;;;;;;;2.60;2.40;;;;;;;;;;5016172;28;20464;-68
2022/08/03 01:39:31;;;;;;;1.90;1.80;;;;;;;;;;5016180;28;20420;-71
2022/08/03 01:42:03;;;;;;;3.03;2.33;;;;;;;;;;5015748;28;20550;-71
2022/08/03 01:44:30;;;;;;;7.03;2.30;;;;;;;;;;5015954;28;20908;-70
2022/08/03 01:46:58;;;;;;;2.50;2.40;;;;;;;;;;5015552;28;20892;-70
2022/08/03 01:49:25;;;;;;;2.33;2.10;;;;;;;;;;4997722;28;20467;-68
2022/08/03 01:51:51;;;;;;;3.00;2.70;;;;;;;;;;5015120;28;20943;-72
2022/08/03 01:54:17;;;;;;;2.60;2.50;;;;;;;;;;4997946;28;20519;-72
2022/08/03 01:56:45;;;;;;;2.00;2.00;;;;;;;;;;5015613;28;20412;-67
2022/08/03 01:59:11;;;;;;;2.73;2.50;;;;;;;;;;5015599;28;20778;-72
2022/08/03 02:01:38;;;;;;;2.20;2.10;;;;;;;;;;5015361;28;20462;-70
2022/08/03 02:04:06;;;;;;;2.67;2.53;;;;;;;;;;5015565;28;20418;-68
2022/08/03 02:06:33;;;;;;;2.60;2.43;;;;;;;;;;5015402;28;20563;-67
2022/08/03 02:09:00;;;;;;;2.43;2.33;;;;;;;;;;5015439;28;20404;-68
2022/08/03 02:11:27;;;;;;;2.13;2.13;;;;;;;;;;4998076;28;20527;-67
2022/08/03 02:13:54;;;;;;;1.83;1.83;;;;;;;;;;5015375;28;20436;-67
2022/08/03 02:16:21;;;;;;;2.50;2.40;;;;;;;;;;5014980;28;20482;-70
2022/08/03 02:18:47;;;;;;;2.67;1.87;;;;;;;;;;5015211;28;20515;-67
2022/08/03 02:21:14;;;;;;;2.80;2.10;;;;;;;;;;5015166;28;20437;-65
2022/08/03 02:23:40;;;;;;;2.47;2.27;;;;;;;;;;5015230;28;20419;-70
2022/08/03 02:26:08;;;;;;;3.23;2.63;;;;;;;;;;5015077;28;20537;-67
2022/08/03 02:28:36;;;;;;;2.60;2.40;;;;;;;;;;5015128;28;20417;-73
2022/08/03 02:31:04;;;;;;;4.43;2.60;;;;;;;;;;4997254;28;20423;-72
2022/08/03 02:33:32;;;;;;;2.67;2.50;;;;;;;;;;5014911;28;20408;-71
2022/08/03 02:35:59;;;;;;;5.93;2.47;;;;;;;;;;5014957;28;20409;-68
2022/08/03 02:38:28;;;;;;;2.00;2.00;;;;;;;;;;5014867;28;20916;-69
2022/08/03 02:40:55;;;;;;;2.90;2.70;;;;;;;;;;5014831;28;20489;-70
2022/08/03 02:43:21;;;;;;;3.27;2.70;;;;;;;;;;5014620;28;20564;-69
2022/08/03 02:45:49;;;;;;;3.00;2.87;;;;;;;;;;5014721;28;20458;-72
2022/08/03 02:48:22;;;;;;;2.60;2.60;;;;;;;;;;5014693;28;20791;-69
2022/08/03 02:50:48;;;;;;;2.07;2.07;;;;;;;;;;5014568;28;20877;-71
2022/08/03 02:53:17;;;;;;;2.63;2.50;;;;;;;;;;5014542;28;20406;-67
2022/08/03 02:55:44;;;;;;;2.43;2.33;;;;;;;;;;5014574;28;20407;-71
2022/08/03 02:58:11;;;;;;;3.60;2.70;;;;;;;;;;5014423;28;20775;-68
2022/08/03 03:00:37;;;;;;;2.40;2.30;;;;;;;;;;5014349;28;20414;-68
2022/08/03 03:03:04;;;;;;;2.33;2.23;;;;;;;;;;5014394;28;20421;-68
2022/08/03 03:05:30;;;;;;;2.77;2.20;;;;;;;;;;5014315;28;20458;-67
2022/08/03 03:07:56;;;;;;;2.30;2.10;;;;;;;;;;5014311;28;20829;-67
2022/08/03 03:10:24;;;;;;;6.73;2.57;;;;;;;;;;5014098;28;20411;-67
2022/08/03 03:12:52;;;;;;;2.20;2.10;;;;;;;;;;4996558;28;20916;-68
2022/08/03 03:15:17;;;;;;;2.60;2.20;;;;;;;;;;4996673;28;20418;-66
2022/08/03 03:17:44;;;;;;;2.17;2.17;;;;;;;;;;5014135;28;20493;-68
2022/08/03 03:20:10;;;;;;;2.67;2.47;;;;;;;;;;5014032;28;20816;-70
2022/08/03 03:22:37;;;;;;;2.40;2.20;;;;;;;;;;5014056;28;20406;-70
2022/08/03 03:25:05;;;;;;;4.27;2.70;;;;;;;;;;5014063;28;20410;-71
2022/08/03 03:27:32;;;;;;;2.50;2.33;;;;;;;;;;4995824;28;20496;-69
2022/08/03 03:29:58;;;;;;;2.00;1.97;;;;;;;;;;5014268;28;20410;-72
2022/08/03 03:32:27;;;;;;;2.20;2.10;;;;;;;;;;5013642;28;20526;-67
2022/08/03 03:34:54;;;;;;;7.50;2.33;;;;;;;;;;5013760;28;20406;-67
2022/08/03 03:37:20;;;;;;;2.63;2.50;;;;;;;;;;4996078;28;20907;-70
2022/08/03 03:39:46;;;;;;;2.63;2.27;;;;;;;;;;4995982;28;20420;-70
2022/08/03 03:42:12;;;;;;;3.27;3.00;;;;;;;;;;5013539;28;20463;-68
2022/08/03 03:44:38;;;;;;;2.17;2.13;;;;;;;;;;5013857;28;20890;-69
2022/08/03 03:47:04;;;;;;;4.40;2.57;;;;;;;;;;5013778;28;20579;-68
2022/08/03 03:49:30;;;;;;;2.80;2.00;;;;;;;;;;5013648;28;20442;-74
2022/08/03 03:51:57;;;;;;;3.00;2.70;;;;;;;;;;5012850;28;20824;-74
2022/08/03 03:54:23;;;;;;;2.30;2.20;;;;;;;;;;5012805;28;20405;-72
2022/08/03 03:56:49;;;;;;;17.03;10.00;;;;;;;;;;5013308;28;20509;-73
2022/08/03 03:59:15;;;;;;;9.97;9.17;;;;;;;;;;5013347;28;20404;-74
2022/08/03 04:01:41;;;;;;;3.87;3.77;;;;;;;;;;5013509;28;20910;-73
2022/08/03 04:12:24;;;;;;;7.30;2.80;;;;;;;;;;5013159;28;20441;-68
2022/08/03 04:14:51;;;;;;;3.90;3.60;;;;;;;;;;5013543;28;20405;-71
2022/08/03 04:17:17;;;;;;;2.30;2.30;;;;;;;;;;4995687;28;20433;-73
2022/08/03 04:19:47;;;;;;;2.87;2.67;;;;;;;;;;5013249;28;20902;-67
2022/08/03 04:22:17;;;;;;;3.80;3.20;;;;;;;;;;5013422;28;20397;-71
2022/08/03 04:24:45;;;;;;;6.70;3.30;;;;;;;;;;5013270;28;20416;-69
2022/08/03 04:27:13;;;;;;;6.67;2.20;;;;;;;;;;5013229;28;20483;-68
2022/08/03 04:29:41;;;;;;;3.43;2.33;;;;;;;;;;5013230;28;20877;-68
2022/08/03 04:32:07;;;;;;;3.70;2.33;;;;;;;;;;5013001;28;20425;-74
2022/08/03 04:34:33;;;;;;;2.50;2.40;;;;;;;;;;5013319;28;20460;-74
2022/08/03 04:37:00;;;;;;;3.20;2.93;;;;;;;;;;5013173;28;20916;-73
2022/08/03 04:39:27;;;;;;;2.67;2.57;;;;;;;;;;5013380;28;20415;-71
2022/08/03 04:41:58;;;;;;;3.13;2.90;;;;;;;;;;5017065;28;20460;-74
2022/08/03 04:44:25;;;;;;;3.33;2.80;;;;;;;;;;5017212;28;20412;-74
2022/08/03 04:46:51;;;;;;;2.97;2.87;;;;;;;;;;5016845;28;20479;-73
2022/08/03 04:49:17;;;;;;;3.13;2.93;;;;;;;;;;5017061;28;20413;-73
2022/08/03 04:51:44;;;;;;;2.70;2.50;;;;;;;;;;5016851;28;20493;-74
2022/08/03 04:54:13;;;;;;;3.20;3.00;;;;;;;;;;5016697;28;20914;-77
2022/08/03 04:56:40;;;;;;;7.77;2.60;;;;;;;;;;5016865;28;20410;-74
2022/08/03 04:59:06;;;;;;;4.30;2.37;;;;;;;;;;5016664;28;20903;-69
2022/08/03 05:01:32;;;;;;;3.23;2.67;;;;;;;;;;5016767;28;20504;-76
2022/08/03 05:03:59;;;;;;;3.30;2.20;;;;;;;;;;5016784;28;20404;-74
2022/08/03 05:06:25;;;;;;;5.50;2.40;;;;;;;;;;5016674;28;20831;-75
2022/08/03 05:08:51;;;;;;;2.27;2.27;;;;;;;;;;5016711;28;20762;-75
2022/08/03 05:11:17;;;;;;;2.50;2.40;;;;;;;;;;5016611;28;20413;-76
2022/08/03 05:13:44;;;;;;;2.70;2.60;;;;;;;;;;4998889;28;20427;-68
2022/08/03 05:16:10;;;;;;;3.20;3.00;;;;;;;;;;5016575;28;20424;-73
2022/08/03 05:18:36;;;;;;;2.80;2.70;;;;;;;;;;5016282;28;20757;-72
2022/08/03 05:21:03;;;;;;;2.80;2.70;;;;;;;;;;5016314;28;20414;-72
2022/08/03 05:23:29;;;;;;;2.50;2.40;;;;;;;;;;5015946;28;20404;-71
2022/08/03 05:25:55;;;;;;;2.50;2.30;;;;;;;;;;5016043;28;20472;-69
2022/08/03 05:28:21;;;;;;;3.07;2.57;;;;;;;;;;5016242;28;20417;-71
2022/08/03 05:30:47;;;;;;;3.17;2.90;;;;;;;;;;5015838;28;20413;-68
2022/08/03 05:33:13;;;;;;;2.67;2.47;;;;;;;;;;5015928;28;20412;-73
2022/08/03 05:35:39;;;;;;;3.77;3.07;;;;;;;;;;5015934;28;20411;-71
2022/08/03 05:38:06;;;;;;;5.70;2.50;;;;;;;;;;5015825;28;20415;-74
2022/08/03 05:40:32;;;;;;;3.00;2.80;;;;;;;;;;5015781;28;20408;-70
2022/08/03 05:42:58;;;;;;;2.20;2.20;;;;;;;;;;5015804;28;20880;-71
2022/08/03 05:45:25;;;;;;;3.03;2.77;;;;;;;;;;5015759;28;20506;-67
2022/08/03 05:47:51;;;;;;;3.50;2.50;;;;;;;;;;5015934;28;20451;-68
2022/08/03 05:50:18;;;;;;;3.33;2.40;;;;;;;;;;5015244;28;20400;-70
2022/08/03 05:52:45;;;;;;;2.50;2.40;;;;;;;;;;5015741;28;20426;-72
2022/08/03 05:55:12;;;;;;;3.17;2.87;;;;;;;;;;5015346;28;20413;-70
2022/08/03 05:57:38;;;;;;;9.70;6.70;;;;;;;;;;5015862;28;20449;-71
2022/08/03 06:00:06;;;;;;;11.27;8.73;;;;;;;;;;5015371;28;20401;-69
2022/08/03 06:02:32;;;;;;;5.00;4.60;;;;;;;;;;5015580;28;20458;-68
2022/08/03 06:04:58;;;;;;;3.70;3.50;;;;;;;;;;5015749;28;20429;-71
2022/08/03 06:07:24;;;;;;;5.67;4.00;;;;;;;;;;5015147;28;20476;-66
2022/08/03 06:09:50;;;;;;;3.30;3.10;;;;;;;;;;5015202;28;20412;-70
2022/08/03 06:12:16;;;;;;;2.87;2.77;;;;;;;;;;5015406;28;20460;-72
2022/08/03 06:14:42;;;;;;;3.23;3.10;;;;;;;;;;4997606;28;20894;-71
2022/08/03 06:17:08;;;;;;;3.43;3.33;;;;;;;;;;5015069;28;20416;-70
2022/08/03 06:19:34;;;;;;;3.83;3.73;;;;;;;;;;5014586;28;20983;-71
2022/08/03 06:22:00;;;;;;;4.10;4.00;;;;;;;;;;4997628;28;20409;-71
2022/08/03 06:24:26;;;;;;;6.03;4.30;;;;;;;;;;5014998;28;20464;-71
2022/08/03 06:26:52;;;;;;;8.23;5.23;;;;;;;;;;4997314;28;20464;-72
2022/08/03 06:29:18;;;;;;;4.60;4.40;;;;;;;;;;5015111;28;20405;-71
2022/08/03 06:31:44;;;;;;;5.50;5.00;;;;;;;;;;5015130;28;20481;-72
2022/08/03 06:34:10;;;;;;;5.67;5.20;;;;;;;;;;4997488;28;20483;-72
2022/08/03 06:36:36;;;;;;;5.30;5.00;;;;;;;;;;5014998;28;20484;-71
2022/08/03 06:39:02;;;;;;;8.57;4.40;;;;;;;;;;5014932;28;20406;-70
2022/08/03 06:41:28;;;;;;;5.47;4.40;;;;;;;;;;5014823;28;20409;-73
2022/08/03 06:43:54;;;;;;;4.80;4.40;;;;;;;;;;4997274;28;20877;-70
2022/08/03 06:46:21;;;;;;;4.30;4.10;;;;;;;;;;5014803;28;20479;-71
2022/08/03 06:48:47;;;;;;;3.83;3.40;;;;;;;;;;5014875;28;20818;-66
2022/08/03 06:51:13;;;;;;;4.30;4.00;;;;;;;;;;5014825;28;20414;-67
2022/08/03 06:53:39;;;;;;;3.97;3.67;;;;;;;;;;5012983;28;20421;-66
2022/08/03 06:56:05;;;;;;;4.00;3.47;;;;;;;;;;5014365;28;20419;-68
2022/08/03 06:58:31;;;;;;;3.57;3.33;;;;;;;;;;5014582;28;20510;-69
2022/08/03 07:00:57;;;;;;;4.00;3.60;;;;;;;;;;5014385;28;20874;-68
2022/08/03 07:03:23;;;;;;;3.20;3.07;;;;;;;;;;5013684;28;20416;-67
2022/08/03 07:05:50;;;;;;;2.90;2.80;;;;;;;;;;5013217;28;20570;-67
2022/08/03 07:08:16;;;;;;;3.87;3.30;;;;;;;;;;5014304;28;20431;-69
2022/08/03 07:10:42;;;;;;;3.90;3.70;;;;;;;;;;5014407;28;20458;-69
2022/08/03 07:13:08;;;;;;;3.67;2.67;;;;;;;;;;5013787;28;20433;-65
2022/08/03 07:15:34;;;;;;;3.30;2.97;;;;;;;;;;5014297;28;20447;-67
2022/08/03 07:18:00;;;;;;;6.40;3.23;;;;;;;;;;5014240;28;20418;-73
2022/08/03 07:20:26;;;;;;;3.17;3.17;;;;;;;;;;5014004;28;20503;-75
2022/08/03 07:22:52;;;;;;;2.90;2.80;;;;;;;;;;4996388;28;20778;-75
2022/08/03 07:25:19;;;;;;;3.43;3.20;;;;;;;;;;5013998;28;20415;-76
2022/08/03 07:27:45;;;;;;;3.57;3.27;;;;;;;;;;5013861;28;20430;-74
2022/08/03 07:30:12;;;;;;;3.53;3.43;;;;;;;;;;5014016;28;20853;-75
2022/08/03 07:32:38;;;;;;;3.97;3.50;;;;;;;;;;5013304;28;20447;-75
2022/08/03 07:35:05;;;;;;;3.10;3.00;;;;;;;;;;5013806;28;20417;-75
2022/08/03 07:37:31;;;;;;;2.87;2.77;;;;;;;;;;5013778;28;20464;-75
2022/08/03 07:39:58;;;;;;;3.70;3.50;;;;;;;;;;5013636;28;20456;-75
2022/08/03 07:42:24;;;;;;;3.80;3.40;;;;;;;;;;5013586;28;20470;-72
2022/08/03 07:44:50;;;;;;;2.70;2.50;;;;;;;;;;5012992;28;20447;-72
2022/08/03 07:47:34;;;;;;;3.40;3.20;;;;;;;;;;5015391;28;20482;-73
2022/08/03 07:50:00;;;;;;;3.50;3.40;;;;;;;;;;4995771;28;20420;-71
2022/08/03 07:55:10;;;;;;;3.47;3.37;;;;;;;;;;4993932;28;20906;-75
2022/08/03 07:57:37;;;;;;;5.47;2.97;;;;;;;;;;4993896;28;20424;-72
2022/08/03 08:00:08;;;;;;;3.57;3.37;;;;;;;;;;4993164;28;20414;-75
2022/08/03 08:02:34;;;;;;;4.10;3.40;;;;;;;;;;4993739;28;20784;-76
2022/08/03 08:04:59;;;;;;;3.73;3.03;;;;;;;;;;4995901;28;20414;-76
2022/08/03 08:07:25;;;;;;;3.17;2.97;;;;;;;;;;4995403;28;20473;-73
2022/08/03 08:09:51;;;;;;;2.70;2.60;;;;;;;;;;5013444;28;20423;-73
2022/08/03 08:12:17;;;;;;;4.13;3.00;;;;;;;;;;5010653;28;20452;-73
2022/08/03 08:14:45;;;;;;;3.37;2.97;;;;;;;;;;5008521;28;20488;-76
2022/08/03 08:17:11;;;;;;;3.90;3.50;;;;;;;;;;5013157;28;20420;-75
2022/08/03 08:19:37;;;;;;;5.93;2.87;;;;;;;;;;5013435;28;21242;-73
2022/08/03 08:22:03;;;;;;;4.60;3.53;;;;;;;;;;5013379;28;20442;-70
2022/08/03 08:24:29;;;;;;;4.73;3.23;;;;;;;;;;4995614;28;20949;-70
2022/08/03 08:26:55;;;;;;;3.67;3.57;;;;;;;;;;4995308;28;20478;-76
2022/08/03 08:29:22;;;;;;;3.33;3.13;;;;;;;;;;5013176;28;20407;-70
2022/08/03 08:31:49;;;;;;;5.37;3.77;;;;;;;;;;5013092;28;20413;-75
2022/08/03 08:34:15;;;;;;;3.00;2.90;;;;;;;;;;4995709;28;20417;-74
2022/08/03 08:36:41;;;;;;;3.00;2.90;;;;;;;;;;5013280;28;20456;-77
2022/08/03 08:39:07;;;;;;;3.40;3.20;;;;;;;;;;5012354;28;20436;-77
2022/08/03 08:41:33;;;;;;;3.67;3.57;;;;;;;;;;5009928;28;20807;-74
2022/08/03 08:44:00;;;;;;;3.53;3.23;;;;;;;;;;5013297;28;20518;-77
2022/08/03 08:46:26;;;;;;;4.93;3.07;;;;;;;;;;5013116;28;20475;-74
2022/08/03 08:48:53;;;;;;;4.53;3.37;;;;;;;;;;5013104;28;20478;-77
2022/08/03 08:51:20;;;;;;;3.03;2.80;;;;;;;;;;5013108;28;20404;-72
2022/08/03 08:53:49;;;;;;;23.43;3.20;;;;;;;;;;5012894;28;20453;-75
2022/08/03 08:56:16;;;;;;;5.63;3.30;;;;;;;;;;5012767;28;20403;-74
2022/08/03 08:58:47;;;;;;;3.70;2.80;;;;;;;;;;5012886;28;20421;-77
2022/08/03 09:01:13;;;;;;;3.20;2.90;;;;;;;;;;4997022;28;20497;-74
2022/08/03 09:03:39;;;;;;;3.23;3.13;;;;;;;;;;5012954;28;20927;-77
2022/08/03 09:06:05;;;;;;;7.10;3.33;;;;;;;;;;4994758;28;20571;-79
2022/08/03 09:08:32;;;;;;;3.33;3.03;;;;;;;;;;5012844;28;20491;-77
2022/08/03 09:10:58;;;;;;;3.13;2.80;;;;;;;;;;5010716;28;20440;-76
2022/08/03 09:13:24;;;;;;;2.97;2.80;;;;;;;;;;5012495;28;20428;-71
2022/08/03 09:16:08;;;;;;;19.43;3.70;;;;;;;;;;4994925;28;20441;-77
2022/08/03 09:18:34;;;;;;;5.07;3.07;;;;;;;;;;5011919;28;20450;-73
2022/08/03 09:21:15;;;;;;;6.23;3.10;;;;;;;;;;5010401;28;20555;-75
2022/08/03 09:23:46;;;;;;;4.53;2.90;;;;;;;;;;4993652;28;20486;-74
2022/08/03 09:26:12;;;;;;;3.50;3.23;;;;;;;;;;5011194;28;20562;-72
2022/08/03 09:28:38;;;;;;;7.70;2.93;;;;;;;;;;4996617;28;20422;-72
2022/08/03 09:31:04;;;;;;;6.47;2.50;;;;;;;;;;5016348;28;20468;-72
2022/08/03 09:33:30;;;;;;;3.80;2.40;;;;;;;;;;4998653;28;20859;-82
2022/08/03 09:35:57;;;;;;;5.97;2.20;;;;;;;;;;5016069;28;20417;-73
2022/08/03 09:38:26;;;;;;;4.90;2.60;;;;;;;;;;5016220;28;20425;-67
2022/08/03 09:40:52;;;;;;;2.77;2.67;;;;;;;;;;5015319;28;20444;-73
2022/08/03 09:43:18;;;;;;;2.90;2.40;;;;;;;;;;5015621;28;21045;-68
2022/08/03 09:45:44;;;;;;;3.43;2.83;;;;;;;;;;5015547;28;20503;-69
2022/08/03 09:48:28;;;;;;;4.03;2.50;;;;;;;;;;5015765;28;20439;-68
2022/08/03 09:50:58;;;;;;;5.70;2.47;;;;;;;;;;5015978;28;20793;-67
2022/08/03 09:53:24;;;;;;;2.63;2.43;;;;;;;;;;5015825;28;20412;-67
2022/08/03 09:55:54;;;;;;;2.60;2.50;;;;;;;;;;4997904;28;20413;-67
2022/08/03 09:58:20;;;;;;;4.67;2.93;;;;;;;;;;5015620;28;20417;-69
2022/08/03 10:00:53;;;;;;;4.10;2.60;;;;;;;;;;5015682;28;20413;-68
2022/08/03 10:03:19;;;;;;;3.80;2.40;;;;;;;;;;5015663;28;20443;-73
2022/08/03 10:05:45;;;;;;;4.43;2.63;;;;;;;;;;5015399;28;20869;-70
2022/08/03 10:08:15;;;;;;;2.80;2.60;;;;;;;;;;5015491;28;20405;-74
2022/08/03 10:10:42;;;;;;;5.00;2.57;;;;;;;;;;5015588;28;20409;-74
2022/08/03 10:13:09;;;;;;;4.10;2.67;;;;;;;;;;5015471;28;20949;-75
2022/08/03 10:15:35;;;;;;;6.40;2.67;;;;;;;;;;5015288;28;20440;-77
2022/08/03 10:18:01;;;;;;;2.73;2.40;;;;;;;;;;5015460;28;20438;-73
2022/08/03 10:20:27;;;;;;;2.17;2.00;;;;;;;;;;5015316;28;20436;-73
2022/08/03 10:22:54;;;;;;;2.70;2.13;;;;;;;;;;4997750;28;20417;-74
2022/08/03 10:25:20;;;;;;;2.10;1.90;;;;;;;;;;5014325;28;20451;-74
2022/08/03 10:27:47;;;;;;;2.67;2.20;;;;;;;;;;5011446;28;20449;-75
2022/08/03 10:30:13;;;;;;;2.40;2.40;;;;;;;;;;5014949;28;20437;-75
2022/08/03 10:32:45;;;;;;;4.43;2.10;;;;;;;;;;4997598;28;20433;-75
2022/08/03 10:35:15;;;;;;;2.27;2.27;;;;;;;;;;5014162;28;20491;-73
2022/08/03 10:37:44;;;;;;;2.40;2.30;;;;;;;;;;5014539;28;20436;-76
2022/08/03 10:40:17;;;;;;;2.37;2.27;;;;;;;;;;5014746;28;20852;-75
2022/08/03 10:42:44;;;;;;;2.73;2.00;;;;;;;;;;5006585;28;20562;-75
2022/08/03 10:45:21;;;;;;;3.37;2.43;;;;;;;;;;5014526;28;20408;-76
2022/08/03 10:47:47;;;;;;;2.10;2.10;;;;;;;;;;5014822;28;20547;-75
2022/08/03 10:50:14;;;;;;;2.07;1.97;;;;;;;;;;5011583;28;20441;-78
2022/08/03 10:52:55;;;;;;;6.87;2.00;;;;;;;;;;4994418;28;20448;-78
2022/08/03 10:58:39;;;;;;;2.53;2.43;;;;;;;;;;5014737;28;20439;-74
2022/08/03 11:01:06;;;;;;;4.50;1.87;;;;;;;;;;5014516;28;20912;-73
2022/08/03 11:03:33;;;;;;;1.90;1.90;;;;;;;;;;5014790;28;20440;-74
2022/08/03 11:06:17;;;;;;;2.80;2.60;;;;;;;;;;5014579;28;20464;-74
2022/08/03 11:08:44;;;;;;;2.17;2.03;;;;;;;;;;5014531;28;20892;-73
2022/08/03 11:11:19;;;;;;;1.73;1.73;;;;;;;;;;5014213;28;20400;-76
2022/08/03 11:14:03;;;;;;;3.80;2.07;;;;;;;;;;5014343;28;20939;-73
2022/08/03 11:16:29;;;;;;;2.30;2.20;;;;;;;;;;5014354;28;20455;-76
2022/08/03 11:18:56;;;;;;;1.80;1.80;;;;;;;;;;5014062;28;20492;-72
2022/08/03 11:21:42;;;;;;;1.90;1.90;;;;;;;;;;5014087;28;20500;-73
2022/08/03 11:24:08;;;;;;;3.30;1.93;;;;;;;;;;5014080;28;20512;-74
2022/08/03 11:26:34;;;;;;;1.90;1.80;;;;;;;;;;4996371;28;20571;-74
2022/08/03 11:29:19;;;;;;;2.60;2.03;;;;;;;;;;4995213;28;20441;-77
2022/08/03 11:31:45;;;;;;;2.00;1.90;;;;;;;;;;5011501;28;20868;-77
2022/08/03 11:34:12;;;;;;;2.07;1.97;;;;;;;;;;5011214;28;20433;-74
2022/08/03 11:36:57;;;;;;;2.23;2.23;;;;;;;;;;5011673;28;20854;-75
2022/08/03 11:39:37;;;;;;;4.07;1.90;;;;;;;;;;5013320;28;20433;-75
2022/08/03 11:42:23;;;;;;;2.50;2.50;;;;;;;;;;5013832;28;20456;-75
2022/08/03 11:44:52;;;;;;;2.23;2.23;;;;;;;;;;5010170;28;20444;-73
2022/08/03 11:47:20;;;;;;;2.60;2.40;;;;;;;;;;5012563;28;20994;-73
2022/08/03 11:49:50;;;;;;;2.40;2.40;;;;;;;;;;5012689;28;20516;-75
2022/08/03 11:52:16;;;;;;;1.73;1.73;;;;;;;;;;5010996;28;20432;-78
2022/08/03 11:54:43;;;;;;;1.97;1.83;;;;;;;;;;5011535;28;20455;-76
2022/08/03 11:57:09;;;;;;;1.90;1.90;;;;;;;;;;4994246;28;20444;-76
2022/08/03 11:59:36;;;;;;;2.00;2.00;;;;;;;;;;5012236;28;20523;-76
2022/08/03 12:02:06;;;;;;;2.20;2.20;;;;;;;;;;5013910;28;20447;-77
2022/08/03 12:04:31;;;;;;;2.60;2.40;;;;;;;;;;5011911;28;20444;-80
2022/08/03 12:07:01;;;;;;;3.70;3.40;;;;;;;;;;5013147;28;20476;-80
2022/08/03 12:09:27;;;;;;;2.13;2.03;;;;;;;;;;5006523;28;20410;-78
2022/08/03 12:11:53;;;;;;;2.60;2.13;;;;;;;;;;4993936;28;20410;-86
2022/08/03 12:14:19;;;;;;;2.13;2.03;;;;;;;;;;4989516;28;20525;-81
2022/08/03 12:16:48;;;;;;;4.07;3.77;;;;;;;;;;4993954;28;20445;-76
2022/08/03 12:19:14;;;;;;;3.67;2.40;;;;;;;;;;5010905;28;20579;-84
2022/08/03 12:21:47;;;;;;;2.70;2.47;;;;;;;;;;4994302;28;20447;-77
2022/08/03 12:24:13;;;;;;;3.13;2.40;;;;;;;;;;4994483;28;20445;-73
2022/08/03 12:26:44;;;;;;;2.60;2.50;;;;;;;;;;5013196;28;20472;-75
2022/08/03 12:29:19;;;;;;;4.00;2.10;;;;;;;;;;5013442;28;20436;-75
2022/08/03 12:31:46;;;;;;;2.33;2.23;;;;;;;;;;4994636;28;20471;-74
2022/08/03 12:34:12;;;;;;;3.23;2.50;;;;;;;;;;5013571;28;20401;-73
2022/08/03 12:36:49;;;;;;;2.30;2.20;;;;;;;;;;5010976;28;20938;-72
2022/08/03 12:39:15;;;;;;;2.40;2.27;;;;;;;;;;5013089;28;20919;-75
2022/08/03 12:41:41;;;;;;;2.03;1.93;;;;;;;;;;5011987;28;20445;-74
2022/08/03 12:44:08;;;;;;;4.73;2.37;;;;;;;;;;5012855;28;20856;-75
2022/08/03 12:46:38;;;;;;;1.90;1.53;;;;;;;;;;4995285;28;20699;-76
2022/08/03 12:49:06;;;;;;;1.80;1.80;;;;;;;;;;5013101;28;20427;-77
2022/08/03 12:51:33;;;;;;;2.83;1.83;;;;;;;;;;4995437;28;20436;-74
2022/08/03 12:54:00;;;;;;;1.80;1.80;;;;;;;;;;4995409;28;20987;-75
2022/08/03 12:56:26;;;;;;;1.73;1.70;;;;;;;;;;4993981;28;20457;-75
2022/08/03 12:58:52;;;;;;;3.70;1.40;;;;;;;;;;5005985;28;20440;-74
2022/08/03 13:01:21;;;;;;;1.77;1.77;;;;;;;;;;5010720;28;20409;-75
2022/08/03 13:03:48;;;;;;;5.53;1.77;;;;;;;;;;5015988;28;20432;-74
2022/08/03 13:06:14;;;;;;;2.50;2.10;;;;;;;;;;5013547;28;20480;-74
2022/08/03 13:08:41;;;;;;;1.63;1.63;;;;;;;;;;5016438;28;20936;-75
2022/08/03 13:11:20;;;;;;;3.60;1.60;;;;;;;;;;5016026;28;20425;-82
2022/08/03 13:13:46;;;;;;;1.60;1.60;;;;;;;;;;4999217;28;20421;-77
2022/08/03 13:16:12;;;;;;;2.90;2.70;;;;;;;;;;4998036;28;20491;-70
2022/08/03 13:18:38;;;;;;;1.10;1.10;;;;;;;;;;5016618;28;20745;-73
2022/08/03 13:21:04;;;;;;;1.80;1.43;;;;;;;;;;5017426;28;20204;-72
2022/08/03 13:23:30;;;;;;;1.90;1.77;;;;;;;;;;5016508;28;20405;-73
2022/08/03 13:25:56;;;;;;;1.00;1.00;;;;;;;;;;4994687;28;20958;-74
2022/08/03 13:28:22;;;;;;;0.80;0.73;;;;;;;;;;5007729;28;20944;-77
2022/08/03 13:30:48;;;;;;;1.23;1.13;;;;;;;;;;4998387;28;20514;-72
2022/08/03 13:33:14;;;;;;;1.20;1.10;;;;;;;;;;4998542;28;20780;-68
2022/08/03 13:35:40;;;;;;;0.80;0.80;;;;;;;;;;5016110;28;20415;-70
2022/08/03 13:38:06;;;;;;;0.80;0.80;;;;;;;;;;5015999;28;20413;-69
2022/08/03 13:40:33;;;;;;;0.70;0.70;;;;;;;;;;5015997;28;20409;-77
2022/08/03 13:42:59;;;;;;;0.87;0.87;;;;;;;;;;5016060;28;20237;-70
2022/08/03 13:45:26;;;;;;;0.90;0.90;;;;;;;;;;5015901;28;20606;-74
2022/08/03 13:47:52;;;;;;;0.97;0.97;;;;;;;;;;5016084;28;20475;-78
2022/08/03 13:50:18;;;;;;;1.07;1.07;;;;;;;;;;5016082;28;20411;-77
2022/08/03 13:52:45;;;;;;;0.90;0.90;;;;;;;;;;4998213;28;20511;-78
2022/08/03 13:55:11;;;;;;;1.60;1.60;;;;;;;;;;5015803;28;20169;-72
2022/08/03 13:57:37;;;;;;;1.20;1.20;;;;;;;;;;4997312;28;20482;-71
2022/08/03 14:00:04;;;;;;;2.97;1.93;;;;;;;;;;5013283;28;20444;-73
2022/08/03 14:02:30;;;;;;;1.73;1.73;;;;;;;;;;5014425;28;20456;-72
2022/08/03 14:04:56;;;;;;;2.50;1.40;;;;;;;;;;5013098;28;20445;-69
2022/08/03 14:07:22;;;;;;;0.83;0.83;;;;;;;;;;5012211;28;20217;-69
2022/08/03 14:09:48;;;;;;;1.30;1.20;;;;;;;;;;5016754;28;20525;-72
2022/08/03 14:12:14;;;;;;;1.80;1.70;;;;;;;;;;5014974;28;20893;-72
2022/08/03 14:14:40;;;;;;;3.20;1.00;;;;;;;;;;4997880;28;20425;-70
2022/08/03 14:17:06;;;;;;;5.10;1.33;;;;;;;;;;5011581;28;20664;-69
2022/08/03 14:19:32;;;;;;;1.83;1.00;;;;;;;;;;5012095;28;20424;-69
2022/08/03 14:21:58;;;;;;;1.53;1.00;;;;;;;;;;5012636;28;20433;-69
2022/08/03 14:24:25;;;;;;;1.00;1.00;;;;;;;;;;5010870;28;20221;-69
2022/08/03 14:26:51;;;;;;;0.90;0.90;;;;;;;;;;5012747;28;20711;-69
2022/08/03 14:29:17;;;;;;;1.37;1.30;;;;;;;;;;5012182;28;20425;-71
2022/08/03 14:31:43;;;;;;;1.30;1.30;;;;;;;;;;5012257;28;20201;-69
2022/08/03 14:34:09;;;;;;;2.20;1.20;;;;;;;;;;5012306;28;20592;-74
2022/08/03 14:36:35;;;;;;;1.47;1.47;;;;;;;;;;4995244;28;20429;-77
2022/08/03 14:39:01;;;;;;;1.20;1.17;;;;;;;;;;5012371;28;20190;-71
2022/08/03 14:41:27;;;;;;;1.40;1.37;;;;;;;;;;4996005;28;20436;-71
2022/08/03 14:43:55;;;;;;;1.57;1.30;;;;;;;;;;4995458;28;20883;-72
2022/08/03 14:46:21;;;;;;;1.40;1.30;;;;;;;;;;5010832;28;20512;-70
2022/08/03 14:48:47;;;;;;;2.40;1.30;;;;;;;;;;5034801;28;20427;-70
2022/08/03 14:51:13;;;;;;;1.80;1.20;;;;;;;;;;5034799;28;20170;-70
2022/08/03 14:53:39;;;;;;;3.73;1.43;;;;;;;;;;5034835;28;20412;-70
2022/08/03 14:56:05;;;;;;;0.80;0.80;;;;;;;;;;5017030;28;20780;-70
2022/08/03 14:58:31;;;;;;;0.80;0.80;;;;;;;;;;5034677;28;20478;-74